Terminal Aerodrome Forecast
Issued by NWS

Home | Current Version | Previous Version | Text Only | Print | Product List | Glossary On
Versions: 1 2 3 4 5 6 7 8 9 10 11 12 13
000
FTUS42 KTBW 250534
TAFPIE
TAF
KPIE 250534Z 2506/2606 11010KT P6SM SCT035
     FM251400 10010KT P6SM FEW040
     FM251800 07011KT P6SM FEW035 SCT050
     FM260200 09012KT P6SM SCT060=

USA.gov is the U.S. government's official web portal to all federal, state and local government web resources and services.